createdAt,value
2023-05-07T00:01:28.969Z,28.60
2023-05-07T00:06:36.105Z,28.60
2023-05-07T00:11:41.284Z,28.80
2023-05-07T00:16:46.698Z,29.00
2023-05-07T00:21:52.160Z,29.00
2023-05-07T00:26:57.520Z,29.00
2023-05-07T00:32:02.637Z,29.10
2023-05-07T00:37:09.704Z,29.20
2023-05-07T00:42:14.873Z,29.40
2023-05-07T00:47:19.870Z,29.50
2023-05-07T00:52:26.692Z,29.70
2023-05-07T00:57:31.976Z,29.70
2023-05-07T01:02:39.620Z,29.80
2023-05-07T01:07:46.178Z,29.80
2023-05-07T01:12:53.314Z,29.80
2023-05-07T01:17:59.587Z,29.90
2023-05-07T01:23:12.100Z,29.90
2023-05-07T01:28:17.650Z,30.20
2023-05-07T01:33:24.863Z,30.30
2023-05-07T01:38:31.396Z,30.50
2023-05-07T01:43:37.018Z,30.60
2023-05-07T01:48:42.923Z,30.90
2023-05-07T01:53:53.037Z,31.00
2023-05-07T01:58:59.106Z,31.20
2023-05-07T02:04:03.987Z,31.30
2023-05-07T02:09:11.310Z,31.50
2023-05-07T02:14:23.023Z,31.60
2023-05-07T02:19:28.413Z,32.20
2023-05-07T02:24:34.181Z,32.60
2023-05-07T02:29:39.634Z,32.70
2023-05-07T02:34:45.525Z,33.00
2023-05-07T02:39:50.994Z,33.10
2023-05-07T02:44:56.173Z,33.60
2023-05-07T02:50:01.183Z,34.10
2023-05-07T02:55:06.417Z,34.10
2023-05-07T03:00:15.964Z,34.90
2023-05-07T03:05:28.789Z,35.30
2023-05-07T03:10:33.439Z,35.10
2023-05-07T03:15:39.178Z,35.10
2023-05-07T03:20:44.933Z,35.40
2023-05-07T03:25:50.703Z,35.60
2023-05-07T03:30:56.411Z,35.80
2023-05-07T03:36:02.005Z,35.60
2023-05-07T03:41:07.706Z,35.40
2023-05-07T03:46:14.211Z,35.70
2023-05-07T03:51:20.349Z,36.00
2023-05-07T03:56:28.980Z,35.80
2023-05-07T04:01:37.032Z,35.90
2023-05-07T04:06:42.414Z,36.80
2023-05-07T04:11:48.188Z,37.10
2023-05-07T04:16:53.816Z,36.80
2023-05-07T04:21:59.457Z,37.00
2023-05-07T04:27:05.165Z,37.00
2023-05-07T04:32:12.230Z,36.90
2023-05-07T04:37:18.788Z,37.40
2023-05-07T04:42:25.150Z,37.60
2023-05-07T04:47:30.632Z,38.10
2023-05-07T04:52:37.529Z,37.70
2023-05-07T04:57:44.339Z,37.50
2023-05-07T05:02:52.216Z,39.00
2023-05-07T05:08:00.017Z,40.20
2023-05-07T05:13:06.006Z,40.50
2023-05-07T05:18:11.519Z,40.90
2023-05-07T05:23:18.584Z,40.80
2023-05-07T05:28:24.433Z,40.90
2023-05-07T05:33:31.194Z,40.30
2023-05-07T05:38:43.096Z,39.60
2023-05-07T05:43:49.328Z,39.00
2023-05-07T05:48:55.436Z,38.70
2023-05-07T05:54:00.993Z,40.00
2023-05-07T05:59:08.121Z,40.80
2023-05-07T06:04:13.902Z,41.90
2023-05-07T06:09:19.378Z,41.80
2023-05-07T06:14:25.470Z,40.50
2023-05-07T06:19:33.721Z,39.00
2023-05-07T06:24:39.208Z,40.20
2023-05-07T06:29:46.937Z,41.10
2023-05-07T06:34:54.191Z,42.70
2023-05-07T06:40:00.294Z,41.10
2023-05-07T06:45:08.429Z,39.50
2023-05-07T06:50:14.113Z,40.90
2023-05-07T06:55:22.927Z,42.40
2023-05-07T07:00:29.159Z,43.20
2023-05-07T07:05:35.084Z,43.80
2023-05-07T07:10:42.251Z,42.70
2023-05-07T07:15:47.877Z,42.80
2023-05-07T07:20:53.471Z,43.70
2023-05-07T07:25:59.197Z,44.30
2023-05-07T07:31:07.096Z,43.30
2023-05-07T07:36:12.979Z,42.90
2023-05-07T07:41:19.273Z,43.30
2023-05-07T07:46:26.182Z,43.60
2023-05-07T07:51:32.969Z,43.60
2023-05-07T07:56:39.614Z,43.10
2023-05-07T08:01:45.892Z,43.00
2023-05-07T08:06:51.610Z,42.00
2023-05-07T08:11:57.929Z,41.80
2023-05-07T08:17:03.966Z,40.40
2023-05-07T08:22:10.045Z,39.40
2023-05-07T08:27:15.324Z,38.40
2023-05-07T08:32:21.539Z,38.40
2023-05-07T08:37:27.231Z,38.30
2023-05-07T08:42:38.454Z,37.50
2023-05-07T08:47:49.508Z,37.50
2023-05-07T08:52:58.875Z,37.40
2023-05-07T08:58:04.414Z,37.10
2023-05-07T09:03:14.780Z,36.90
2023-05-07T09:08:28.795Z,37.00
2023-05-07T09:13:38.409Z,36.90
2023-05-07T09:18:46.002Z,36.60
2023-05-07T09:23:57.849Z,36.20
2023-05-07T09:29:13.762Z,36.20
2023-05-07T09:34:19.886Z,35.80
2023-05-07T09:39:27.055Z,35.40
2023-05-07T09:44:34.835Z,35.20
2023-05-07T09:49:44.800Z,34.90
2023-05-07T09:54:53.010Z,34.50
2023-05-07T10:00:02.595Z,33.90
2023-05-07T10:05:13.185Z,33.90
2023-05-07T10:10:20.135Z,33.90
2023-05-07T10:15:27.110Z,34.00
2023-05-07T10:20:36.245Z,33.90
2023-05-07T10:25:44.035Z,33.60
2023-05-07T10:31:32.818Z,33.20
2023-05-07T10:36:39.314Z,32.90
2023-05-07T10:41:45.758Z,32.60
2023-05-07T10:47:11.296Z,32.50
2023-05-07T10:52:24.080Z,32.10
2023-05-07T10:57:39.279Z,32.20
2023-05-07T11:03:04.015Z,31.80
2023-05-07T11:08:18.494Z,31.60
2023-05-07T11:13:50.703Z,31.50
2023-05-07T11:19:19.186Z,31.50
2023-05-07T11:24:28.054Z,31.20
2023-05-07T11:29:41.231Z,31.40
2023-05-07T11:34:54.397Z,31.70
2023-05-07T11:40:09.164Z,31.20
2023-05-07T11:45:14.932Z,31.00
2023-05-07T11:50:20.868Z,30.70
2023-05-07T11:55:28.576Z,30.50
2023-05-07T12:00:34.647Z,30.70
2023-05-07T12:05:41.954Z,30.70
2023-05-07T12:10:50.295Z,30.60
2023-05-07T12:15:57.400Z,30.90
2023-05-07T12:21:03.277Z,31.10
2023-05-07T12:26:11.704Z,31.20
2023-05-07T12:31:18.517Z,31.20
2023-05-07T12:36:23.963Z,31.00
2023-05-07T12:41:31.655Z,30.50
2023-05-07T12:46:42.345Z,30.90
2023-05-07T12:51:49.346Z,31.30
2023-05-07T12:57:02.706Z,30.90
2023-05-07T13:02:08.956Z,30.40
2023-05-07T13:07:16.115Z,30.50
2023-05-07T13:12:21.175Z,30.40
2023-05-07T13:17:26.779Z,30.70
2023-05-07T13:22:32.394Z,31.00
2023-05-07T13:27:40.072Z,30.90
2023-05-07T13:32:45.642Z,31.00
2023-05-07T13:37:51.665Z,31.00
2023-05-07T13:43:04.310Z,31.00
2023-05-07T13:48:11.032Z,29.60
2023-05-07T13:53:18.131Z,27.90
2023-05-07T13:58:23.728Z,26.50
2023-05-07T14:03:29.220Z,26.70
2023-05-07T14:08:34.732Z,26.30
2023-05-07T14:13:39.675Z,27.40
2023-05-07T14:18:45.198Z,28.10
2023-05-07T14:23:51.257Z,29.20
2023-05-07T14:28:57.681Z,27.60
2023-05-07T14:34:03.080Z,25.90
2023-05-07T14:39:08.584Z,25.80
2023-05-07T14:44:14.287Z,26.00
2023-05-07T14:49:20.145Z,26.20
2023-05-07T14:54:25.702Z,26.30
2023-05-07T14:59:31.188Z,26.40
2023-05-07T15:04:37.196Z,26.30
2023-05-07T15:09:42.656Z,26.30
2023-05-07T15:14:48.143Z,26.30
2023-05-07T15:19:54.458Z,26.60
2023-05-07T15:25:01.194Z,26.70
2023-05-07T15:30:07.350Z,27.00
2023-05-07T15:35:13.419Z,27.10
2023-05-07T15:40:19.427Z,27.10
2023-05-07T15:45:36.938Z,27.00
2023-05-07T15:50:42.643Z,26.80
2023-05-07T15:55:49.683Z,26.80
2023-05-07T16:00:55.523Z,26.90
2023-05-07T16:06:03.913Z,26.90
2023-05-07T16:11:09.495Z,27.00
2023-05-07T16:16:14.895Z,27.20
2023-05-07T16:21:39.638Z,27.30
2023-05-07T16:27:23.210Z,27.30
2023-05-07T16:32:30.039Z,27.40
2023-05-07T16:37:44.138Z,27.50
2023-05-07T16:42:49.432Z,27.70
2023-05-07T16:47:58.185Z,27.80
2023-05-07T16:53:16.223Z,27.80
2023-05-07T16:58:21.737Z,28.00
2023-05-07T17:03:27.081Z,28.10
2023-05-07T17:08:32.403Z,28.10
2023-05-07T17:13:37.770Z,27.80
2023-05-07T17:18:42.582Z,27.80
2023-05-07T17:23:48.543Z,27.80
2023-05-07T17:28:53.672Z,27.60
2023-05-07T17:34:00.369Z,27.60
2023-05-07T17:39:06.340Z,27.60
2023-05-07T17:44:11.761Z,27.50
2023-05-07T17:49:17.231Z,27.60
2023-05-07T17:54:22.913Z,27.50
2023-05-07T17:59:28.381Z,27.30
2023-05-07T18:04:33.742Z,27.40
2023-05-07T18:09:38.993Z,27.40
2023-05-07T18:14:44.708Z,27.30
2023-05-07T18:19:52.291Z,27.00
2023-05-07T18:24:59.061Z,26.90
2023-05-07T18:30:04.764Z,26.90
2023-05-07T18:35:10.192Z,27.10
2023-05-07T18:40:15.893Z,27.20
2023-05-07T18:45:21.977Z,26.80
2023-05-07T18:50:27.036Z,26.70
2023-05-07T18:55:32.936Z,26.70
2023-05-07T19:00:38.306Z,26.70
2023-05-07T19:05:45.183Z,26.70
2023-05-07T19:10:50.293Z,26.80
2023-05-07T19:15:56.206Z,26.80
2023-05-07T19:21:01.356Z,26.90
2023-05-07T19:26:06.763Z,27.00
2023-05-07T19:31:11.687Z,27.00
2023-05-07T19:36:18.662Z,27.00
2023-05-07T19:41:24.634Z,27.20
2023-05-07T19:46:41.628Z,27.40
2023-05-07T19:51:47.115Z,27.40
2023-05-07T19:56:52.542Z,27.50
2023-05-07T20:01:58.004Z,27.60
2023-05-07T20:07:03.380Z,27.70
2023-05-07T20:12:08.476Z,27.80
2023-05-07T20:17:13.796Z,27.20
2023-05-07T20:22:18.347Z,26.40
2023-05-07T20:27:26.222Z,25.70
2023-05-07T20:32:31.598Z,25.50
2023-05-07T20:37:37.421Z,25.40
2023-05-07T20:42:44.041Z,25.30
2023-05-07T20:47:49.509Z,25.40
2023-05-07T20:52:54.294Z,25.30
2023-05-07T20:57:59.452Z,25.40
2023-05-07T21:03:04.937Z,25.60
2023-05-07T21:08:09.697Z,25.90
2023-05-07T21:13:14.794Z,26.20
2023-05-07T21:18:20.713Z,26.40
2023-05-07T21:23:25.717Z,26.40
2023-05-07T21:28:31.042Z,26.00
2023-05-07T21:33:35.863Z,26.30
2023-05-07T21:38:41.776Z,26.20
2023-05-07T21:43:46.667Z,26.20
2023-05-07T21:48:51.943Z,26.10
2023-05-07T21:53:57.295Z,26.00
2023-05-07T21:59:02.636Z,25.80
2023-05-07T22:04:07.938Z,25.90
2023-05-07T22:09:13.154Z,25.80
2023-05-07T22:14:19.047Z,25.70
2023-05-07T22:19:25.404Z,25.70
2023-05-07T22:24:32.332Z,25.70
2023-05-07T22:29:37.706Z,25.70
2023-05-07T22:34:43.348Z,25.70
2023-05-07T22:39:48.957Z,25.80
2023-05-07T22:44:59.867Z,25.80
2023-05-07T22:50:06.622Z,25.90
2023-05-07T22:55:12.028Z,25.90
2023-05-07T23:00:17.628Z,25.80
2023-05-07T23:05:22.161Z,25.80
2023-05-07T23:10:27.205Z,25.90
2023-05-07T23:15:34.575Z,25.80
2023-05-07T23:20:42.503Z,25.80
2023-05-07T23:25:48.392Z,25.70
2023-05-07T23:30:52.810Z,25.40
2023-05-07T23:36:04.526Z,25.30
2023-05-07T23:41:09.845Z,25.40
2023-05-07T23:46:14.803Z,25.40
2023-05-07T23:51:20.470Z,25.60
2023-05-07T23:56:26.033Z,25.70
